createdAt,value
2018-11-12T00:01:13.917Z,7.98
2018-11-12T00:03:42.305Z,7.92
2018-11-12T00:06:11.458Z,7.85
2018-11-12T00:08:39.774Z,7.78
2018-11-12T00:11:08.101Z,7.78
2018-11-12T00:13:36.563Z,7.88
2018-11-12T00:16:05.153Z,7.96
2018-11-12T00:18:33.449Z,7.94
2018-11-12T00:21:01.801Z,7.93
2018-11-12T00:23:30.072Z,7.87
2018-11-12T00:25:58.422Z,7.88
2018-11-12T00:28:26.833Z,7.95
2018-11-12T00:30:55.819Z,8.02
2018-11-12T00:33:24.167Z,8.03
2018-11-12T00:35:52.513Z,8.01
2018-11-12T00:38:20.803Z,7.96
2018-11-12T00:40:49.069Z,7.87
2018-11-12T00:43:17.368Z,7.83
2018-11-12T00:45:45.685Z,7.83
2018-11-12T00:48:14.037Z,7.84
2018-11-12T00:50:42.378Z,7.88
2018-11-12T00:53:10.657Z,7.95
2018-11-12T00:55:38.939Z,7.95
2018-11-12T00:58:07.241Z,7.92
2018-11-12T01:00:35.521Z,7.89
2018-11-12T01:03:03.945Z,7.90
2018-11-12T01:05:32.248Z,7.93
2018-11-12T01:08:00.553Z,7.91
2018-11-12T01:10:28.861Z,7.84
2018-11-12T01:12:57.241Z,7.74
2018-11-12T01:15:25.759Z,7.67
2018-11-12T01:17:54.173Z,7.62
2018-11-12T01:20:22.578Z,7.55
2018-11-12T01:22:50.928Z,7.50
2018-11-12T01:25:19.457Z,7.55
2018-11-12T01:27:48.837Z,7.62
2018-11-12T01:30:18.406Z,7.64
2018-11-12T01:32:47.079Z,7.66
2018-11-12T01:35:16.517Z,7.68
2018-11-12T01:37:45.022Z,7.71
2018-11-12T01:40:14.157Z,7.74
2018-11-12T01:42:43.190Z,7.74
2018-11-12T01:45:18.720Z,7.73
2018-11-12T01:47:48.081Z,7.75
2018-11-12T01:50:18.018Z,7.63
2018-11-12T01:52:47.005Z,7.58
2018-11-12T01:55:16.544Z,7.48
2018-11-12T01:57:45.310Z,7.43
2018-11-12T02:00:16.001Z,7.44
2018-11-12T02:02:46.705Z,7.47
2018-11-12T02:05:15.549Z,7.46
2018-11-12T02:07:43.840Z,7.51
2018-11-12T02:10:13.563Z,7.55
2018-11-12T02:12:42.317Z,7.55
2018-11-12T02:15:13.449Z,7.59
2018-11-12T02:17:42.361Z,7.60
2018-11-12T02:20:12.685Z,7.62
2018-11-12T02:22:41.541Z,7.64
2018-11-12T02:25:10.867Z,7.66
2018-11-12T02:27:39.421Z,7.65
2018-11-12T02:30:12.833Z,7.66
2018-11-12T02:32:41.123Z,7.69
2018-11-12T02:35:09.818Z,7.71
2018-11-12T02:37:38.789Z,7.68
2018-11-12T02:40:09.209Z,7.58
2018-11-12T02:42:37.530Z,7.44
2018-11-12T02:45:06.893Z,7.36
2018-11-12T02:47:35.681Z,7.28
2018-11-12T02:50:04.074Z,7.17
2018-11-12T02:52:32.423Z,7.09
2018-11-12T02:55:00.690Z,7.05
2018-11-12T02:57:29.165Z,7.06
2018-11-12T02:59:57.393Z,6.95
2018-11-12T03:02:26.004Z,6.94
2018-11-12T03:04:54.414Z,7.02
2018-11-12T03:07:22.802Z,7.06
2018-11-12T03:09:51.143Z,7.06
2018-11-12T03:12:20.033Z,6.99
2018-11-12T03:14:48.634Z,6.88
2018-11-12T03:17:16.981Z,6.87
2018-11-12T03:19:45.265Z,6.95
2018-11-12T03:22:13.683Z,6.97
2018-11-12T03:24:42.010Z,6.99
2018-11-12T03:27:10.505Z,6.94
2018-11-12T03:29:38.909Z,6.93
2018-11-12T03:32:07.269Z,6.85
2018-11-12T03:34:35.629Z,6.76
2018-11-12T03:37:04.073Z,6.75
2018-11-12T03:39:32.431Z,6.76
2018-11-12T03:42:00.693Z,6.78
2018-11-12T03:44:29.384Z,6.73
2018-11-12T03:46:57.662Z,6.68
2018-11-12T03:49:26.025Z,6.62
2018-11-12T03:51:54.757Z,6.56
2018-11-12T03:54:23.057Z,6.51
2018-11-12T03:56:51.898Z,6.36
2018-11-12T03:59:20.261Z,6.27
2018-11-12T04:01:48.608Z,6.19
2018-11-12T04:04:17.685Z,6.26
2018-11-12T04:06:46.762Z,6.35
2018-11-12T04:09:15.317Z,6.36
2018-11-12T04:11:44.833Z,6.35
2018-11-12T04:14:13.741Z,6.28
2018-11-12T04:16:45.166Z,6.16
2018-11-12T04:19:13.522Z,6.06
2018-11-12T04:21:42.121Z,6.15
2018-11-12T04:24:11.278Z,6.21
2018-11-12T04:26:39.665Z,6.16
2018-11-12T04:29:08.118Z,6.21
2018-11-12T04:31:36.435Z,6.25
2018-11-12T04:34:05.097Z,6.16
2018-11-12T04:36:34.286Z,6.05
2018-11-12T04:39:02.927Z,6.05
2018-11-12T04:41:31.279Z,6.11
2018-11-12T04:43:59.589Z,6.10
2018-11-12T04:46:28.213Z,6.04
2018-11-12T04:48:56.519Z,5.97
2018-11-12T04:51:24.998Z,5.90
2018-11-12T04:53:53.356Z,5.94
2018-11-12T04:56:21.619Z,5.90
2018-11-12T04:58:49.961Z,5.88
2018-11-12T05:01:18.255Z,5.89
2018-11-12T05:03:46.585Z,5.83
2018-11-12T05:06:15.665Z,5.68
2018-11-12T05:08:44.061Z,5.71
2018-11-12T05:11:12.330Z,5.82
2018-11-12T05:13:40.649Z,5.90
2018-11-12T05:16:08.926Z,5.95
2018-11-12T05:18:37.262Z,5.92
2018-11-12T05:21:05.970Z,5.89
2018-11-12T05:23:34.243Z,5.90
2018-11-12T05:26:02.623Z,5.88
2018-11-12T05:28:30.938Z,5.90
2018-11-12T05:30:59.218Z,5.94
2018-11-12T05:33:27.585Z,6.01
2018-11-12T05:35:56.025Z,5.98
2018-11-12T05:38:24.461Z,5.96
2018-11-12T05:40:52.790Z,5.94
2018-11-12T05:43:21.166Z,5.83
2018-11-12T05:45:50.130Z,5.80
2018-11-12T05:48:18.506Z,5.81
2018-11-12T05:50:46.829Z,5.76
2018-11-12T05:53:15.366Z,5.71
2018-11-12T05:55:43.645Z,5.61
2018-11-12T05:58:12.059Z,5.51
2018-11-12T06:00:40.356Z,5.48
2018-11-12T06:03:08.637Z,5.53
2018-11-12T06:05:37.416Z,5.58
2018-11-12T06:08:05.723Z,5.58
2018-11-12T06:10:34.674Z,5.59
2018-11-12T06:13:03.743Z,5.62
2018-11-12T06:15:32.028Z,5.65
2018-11-12T06:18:00.432Z,5.64
2018-11-12T06:20:30.177Z,5.50
2018-11-12T06:22:58.504Z,5.44
2018-11-12T06:25:28.365Z,5.36
2018-11-12T06:27:57.047Z,5.32
2018-11-12T06:30:27.394Z,5.39
2018-11-12T06:32:55.662Z,5.44
2018-11-12T06:35:24.126Z,5.51
2018-11-12T06:37:53.289Z,5.53
2018-11-12T06:40:22.842Z,5.50
2018-11-12T06:42:51.476Z,5.54
2018-11-12T06:45:22.427Z,5.55
2018-11-12T06:47:51.797Z,5.59
2018-11-12T06:50:21.474Z,5.65
2018-11-12T06:52:49.805Z,5.67
2018-11-12T06:55:18.840Z,5.58
2018-11-12T06:57:47.627Z,5.48
2018-11-12T07:00:18.539Z,5.51
2018-11-12T07:02:46.937Z,5.57
2018-11-12T07:05:15.783Z,5.65
2018-11-12T07:07:44.168Z,5.75
2018-11-12T07:10:14.173Z,5.81
2018-11-12T07:12:43.421Z,5.81
2018-11-12T07:15:13.510Z,5.73
2018-11-12T07:17:41.953Z,5.65
2018-11-12T07:20:11.958Z,5.64
2018-11-12T07:22:40.242Z,5.64
2018-11-12T07:25:09.738Z,5.72
2018-11-12T07:27:38.041Z,5.77
2018-11-12T07:30:09.942Z,5.84
2018-11-12T07:32:38.496Z,5.95
2018-11-12T07:35:08.319Z,6.05
2018-11-12T07:37:36.621Z,6.13
2018-11-12T07:40:07.018Z,6.22
2018-11-12T07:42:35.538Z,6.35
2018-11-12T07:45:03.938Z,6.47
2018-11-12T07:47:32.259Z,6.58
2018-11-12T07:50:00.618Z,6.68
2018-11-12T07:52:29.618Z,6.76
2018-11-12T07:54:57.994Z,6.86
2018-11-12T07:57:26.522Z,6.91
2018-11-12T07:59:54.950Z,6.96
2018-11-12T08:02:24.066Z,7.00
2018-11-12T08:04:52.937Z,7.02
2018-11-12T08:07:22.094Z,7.03
2018-11-12T08:09:50.419Z,7.07
2018-11-12T08:12:18.842Z,7.14
2018-11-12T08:14:47.176Z,7.21
2018-11-12T08:17:15.545Z,7.25
2018-11-12T08:19:43.902Z,7.28
2018-11-12T08:22:12.213Z,7.33
2018-11-12T08:24:40.956Z,7.36
2018-11-12T08:27:09.266Z,7.42
2018-11-12T08:29:37.549Z,7.46
2018-11-12T08:32:07.376Z,7.52
2018-11-12T08:34:35.719Z,7.57
2018-11-12T08:37:04.244Z,7.59
2018-11-12T08:39:32.697Z,7.65
2018-11-12T08:42:00.958Z,7.75
2018-11-12T08:44:29.346Z,7.79
2018-11-12T08:46:57.650Z,7.86
2018-11-12T08:49:26.063Z,7.91
2018-11-12T08:51:54.478Z,7.94
2018-11-12T08:54:22.878Z,7.89
2018-11-12T08:56:51.142Z,7.94
2018-11-12T08:59:19.493Z,8.02
2018-11-12T09:01:47.986Z,8.14
2018-11-12T09:04:17.100Z,8.27
2018-11-12T09:06:45.442Z,8.41
2018-11-12T09:09:13.982Z,8.53
2018-11-12T09:11:42.590Z,8.69
2018-11-12T09:14:11.430Z,8.80
2018-11-12T09:16:40.202Z,8.92
2018-11-12T09:19:08.476Z,9.05
2018-11-12T09:21:36.958Z,9.16
2018-11-12T09:24:05.935Z,9.28
2018-11-12T09:26:34.825Z,9.39
2018-11-12T09:29:03.257Z,9.47
2018-11-12T09:31:31.959Z,9.54
2018-11-12T09:34:00.093Z,9.64
2018-11-12T09:36:28.465Z,9.75
2018-11-12T09:41:25.243Z,9.96
2018-11-12T09:43:53.882Z,10.09
2018-11-12T09:46:22.302Z,10.24
2018-11-12T09:48:50.721Z,10.36
2018-11-12T09:51:18.926Z,10.47
2018-11-12T09:53:47.292Z,10.61
2018-11-12T09:56:15.582Z,10.72
2018-11-12T09:58:43.960Z,10.82
2018-11-12T10:01:12.471Z,10.91
2018-11-12T10:03:42.122Z,10.98
2018-11-12T10:06:10.328Z,11.10
2018-11-12T10:08:39.522Z,11.25
2018-11-12T10:11:11.321Z,11.34
2018-11-12T10:13:39.171Z,11.39
2018-11-12T10:16:09.022Z,11.49
2018-11-12T10:18:33.545Z,11.60
2018-11-12T10:21:01.935Z,11.73
2018-11-12T10:23:30.269Z,11.85
2018-11-12T10:25:58.572Z,11.97
2018-11-12T10:28:26.958Z,12.06
2018-11-12T10:30:55.967Z,12.15
2018-11-12T10:33:24.255Z,12.22
2018-11-12T10:35:52.533Z,12.32
2018-11-12T10:38:20.835Z,12.43
2018-11-12T10:40:49.232Z,12.55
2018-11-12T10:43:17.613Z,12.63
2018-11-12T10:45:45.929Z,12.72
2018-11-12T10:48:14.340Z,12.84
2018-11-12T10:50:43.101Z,12.96
2018-11-12T10:53:11.681Z,13.05
2018-11-12T10:55:40.139Z,13.10
2018-11-12T10:58:08.535Z,13.17
2018-11-12T11:00:42.302Z,13.27
2018-11-12T11:03:17.194Z,13.35
2018-11-12T11:05:46.940Z,13.42
2018-11-12T11:08:15.367Z,13.47
2018-11-12T11:10:43.645Z,13.61
2018-11-12T11:13:12.213Z,13.71
2018-11-12T11:15:40.910Z,13.79
2018-11-12T11:18:09.186Z,13.92
2018-11-12T11:20:37.507Z,14.05
2018-11-12T11:23:06.815Z,14.15
2018-11-12T11:25:35.426Z,14.28
2018-11-12T11:28:03.928Z,14.40
2018-11-12T11:30:32.817Z,14.49
2018-11-12T11:33:01.289Z,14.59
2018-11-12T11:35:29.600Z,14.65
2018-11-12T11:37:57.887Z,14.70
2018-11-12T11:40:27.151Z,14.77
2018-11-12T11:42:55.505Z,14.79
2018-11-12T11:45:24.436Z,14.84
2018-11-12T11:47:53.572Z,14.93
2018-11-12T11:50:23.328Z,15.01
2018-11-12T11:52:51.672Z,15.07
2018-11-12T11:55:21.233Z,15.11
2018-11-12T11:57:50.917Z,15.25
2018-11-12T12:00:21.727Z,15.34
2018-11-12T12:02:51.305Z,15.49
2018-11-12T12:05:20.294Z,15.65
2018-11-12T12:07:49.113Z,15.78
2018-11-12T12:10:17.851Z,15.82
2018-11-12T12:12:47.106Z,15.84
2018-11-12T12:15:17.622Z,15.86
2018-11-12T12:17:46.112Z,15.91
2018-11-12T12:20:22.758Z,16.00
2018-11-12T12:22:51.054Z,16.07
2018-11-12T12:25:20.221Z,16.14
2018-11-12T12:27:49.006Z,16.31
2018-11-12T12:30:19.665Z,16.42
2018-11-12T12:32:48.882Z,16.51
2018-11-12T12:35:17.346Z,16.62
2018-11-12T12:37:46.247Z,16.67
2018-11-12T12:40:15.920Z,16.72
2018-11-12T12:42:44.469Z,16.79
2018-11-12T12:45:14.247Z,16.86
2018-11-12T12:47:42.771Z,16.93
2018-11-12T12:50:12.735Z,17.00
2018-11-12T12:52:41.038Z,17.08
2018-11-12T12:55:10.423Z,17.15
2018-11-12T12:57:39.140Z,17.24
2018-11-12T13:00:10.204Z,17.31
2018-11-12T13:02:39.654Z,17.38
2018-11-12T13:05:08.177Z,17.44
2018-11-12T13:07:36.816Z,17.53
2018-11-12T13:10:06.488Z,17.57
2018-11-12T13:12:34.810Z,17.65
2018-11-12T13:15:03.361Z,17.76
2018-11-12T13:17:32.206Z,17.88
2018-11-12T13:20:00.483Z,17.95
2018-11-12T13:22:28.761Z,18.02
2018-11-12T13:24:57.062Z,18.06
2018-11-12T13:27:25.475Z,18.14
2018-11-12T13:29:53.980Z,18.17
2018-11-12T13:32:23.547Z,18.12
2018-11-12T13:34:51.817Z,18.15
2018-11-12T13:37:20.148Z,18.16
2018-11-12T13:39:48.741Z,18.15
2018-11-12T13:42:17.021Z,18.15
2018-11-12T13:44:45.305Z,18.18
2018-11-12T13:47:13.735Z,18.25
2018-11-12T13:49:42.042Z,18.18
2018-11-12T13:52:10.315Z,18.26
2018-11-12T13:54:38.723Z,18.34
2018-11-12T13:57:07.105Z,18.29
2018-11-12T13:59:35.451Z,18.21
2018-11-12T14:02:03.838Z,18.17
2018-11-12T14:04:32.205Z,18.13
2018-11-12T14:07:00.495Z,18.09
2018-11-12T14:09:28.893Z,18.09
2018-11-12T14:11:57.190Z,18.05
2018-11-12T14:14:25.517Z,18.06
2018-11-12T14:16:53.833Z,18.18
2018-11-12T14:19:22.517Z,18.36
2018-11-12T14:21:50.855Z,18.49
2018-11-12T14:24:19.257Z,18.58
2018-11-12T14:26:47.561Z,18.68
2018-11-12T14:29:15.901Z,18.67
2018-11-12T14:31:45.194Z,18.57
2018-11-12T14:34:13.618Z,18.37
2018-11-12T14:36:42.299Z,18.15
2018-11-12T14:39:11.213Z,17.94
2018-11-12T14:41:39.632Z,17.75
2018-11-12T14:44:08.038Z,17.61
2018-11-12T14:46:36.420Z,17.45
2018-11-12T14:49:04.878Z,17.34
2018-11-12T14:51:33.174Z,17.23
2018-11-12T14:54:01.976Z,17.12
2018-11-12T14:56:30.265Z,17.02
2018-11-12T14:58:58.581Z,16.92
2018-11-12T15:01:27.590Z,16.79
2018-11-12T15:03:55.968Z,16.66
2018-11-12T15:06:24.349Z,16.59
2018-11-12T15:08:52.806Z,16.52
2018-11-12T15:11:22.088Z,16.44
2018-11-12T15:13:50.397Z,16.36
2018-11-12T15:16:18.877Z,16.26
2018-11-12T15:18:47.353Z,16.18
2018-11-12T15:21:15.808Z,16.07
2018-11-12T15:23:44.047Z,15.94
2018-11-12T15:26:12.382Z,15.80
2018-11-12T15:28:40.677Z,15.67
2018-11-12T15:31:09.019Z,15.58
2018-11-12T15:33:37.761Z,15.46
2018-11-12T15:36:06.423Z,15.37
2018-11-12T15:38:35.541Z,15.27
2018-11-12T15:41:03.833Z,15.20
2018-11-12T15:43:32.159Z,15.10
2018-11-12T15:46:00.605Z,15.02
2018-11-12T15:48:28.929Z,14.94
2018-11-12T15:50:57.396Z,14.88
2018-11-12T15:53:26.408Z,14.80
2018-11-12T15:55:54.717Z,14.72
2018-11-12T15:58:23.158Z,14.68
2018-11-12T16:00:51.766Z,14.65
2018-11-12T16:03:20.235Z,14.60
2018-11-12T16:05:48.597Z,14.49
2018-11-12T16:08:16.926Z,14.41
2018-11-12T16:10:45.221Z,14.38
2018-11-12T16:13:13.635Z,14.32
2018-11-12T16:15:41.955Z,14.21
2018-11-12T16:18:10.259Z,14.10
2018-11-12T16:20:38.653Z,14.06
2018-11-12T16:23:07.583Z,14.03
2018-11-12T16:25:35.984Z,14.02
2018-11-12T16:28:05.249Z,13.99
2018-11-12T16:30:35.179Z,13.96
2018-11-12T16:33:03.522Z,13.87
2018-11-12T16:35:32.665Z,13.75
2018-11-12T16:38:00.998Z,13.67
2018-11-12T16:40:30.279Z,13.63
2018-11-12T16:42:58.557Z,13.51
2018-11-12T16:45:26.879Z,13.39
2018-11-12T16:47:55.225Z,13.35
2018-11-12T16:50:23.674Z,13.28
2018-11-12T16:52:52.124Z,13.16
2018-11-12T16:55:21.762Z,13.07
2018-11-12T16:57:50.550Z,12.92
2018-11-12T17:00:20.277Z,12.88
2018-11-12T17:02:48.952Z,12.78
2018-11-12T17:05:18.864Z,12.72
2018-11-12T17:07:47.470Z,12.76
2018-11-12T17:10:17.250Z,12.76
2018-11-12T17:12:46.548Z,12.77
2018-11-12T17:15:15.386Z,12.65
2018-11-12T17:17:43.763Z,12.48
2018-11-12T17:20:13.625Z,12.36
2018-11-12T17:22:42.785Z,12.36
2018-11-12T17:25:12.532Z,12.40
2018-11-12T17:27:41.181Z,12.40
2018-11-12T17:30:11.991Z,12.35
2018-11-12T17:32:40.986Z,12.28
2018-11-12T17:35:11.064Z,12.22
2018-11-12T17:37:39.658Z,12.27
2018-11-12T17:40:15.840Z,12.26
2018-11-12T17:42:45.136Z,12.28
2018-11-12T17:45:16.997Z,12.28
2018-11-12T17:47:46.687Z,12.33
2018-11-12T17:50:15.104Z,12.36
2018-11-12T17:52:43.666Z,12.34
2018-11-12T17:55:12.515Z,12.34
2018-11-12T17:57:40.871Z,12.33
2018-11-12T18:00:17.067Z,12.27
2018-11-12T18:02:45.630Z,12.22
2018-11-12T18:05:14.098Z,12.20
2018-11-12T18:07:43.159Z,12.15
2018-11-12T18:10:12.743Z,12.11
2018-11-12T18:12:41.566Z,11.99
2018-11-12T18:15:13.646Z,11.86
2018-11-12T18:17:42.474Z,11.73
2018-11-12T18:20:15.558Z,11.56
2018-11-12T18:22:44.154Z,11.50
2018-11-12T18:25:13.154Z,11.43
2018-11-12T18:27:41.634Z,11.30
2018-11-12T18:30:14.559Z,11.22
2018-11-12T18:32:44.078Z,11.22
2018-11-12T18:35:12.662Z,11.19
2018-11-12T18:37:41.018Z,11.15
2018-11-12T18:40:11.513Z,11.10
2018-11-12T18:42:40.068Z,11.02
2018-11-12T18:45:10.983Z,10.94
2018-11-12T18:47:40.051Z,10.89
2018-11-12T18:50:10.696Z,10.89
2018-11-12T18:52:39.403Z,10.84
2018-11-12T18:55:08.561Z,10.88
2018-11-12T18:57:38.328Z,10.95
2018-11-12T19:00:09.707Z,10.99
2018-11-12T19:02:39.419Z,10.92
2018-11-12T19:05:11.234Z,10.81
2018-11-12T19:07:40.567Z,10.71
2018-11-12T19:10:11.842Z,10.66
2018-11-12T19:12:40.340Z,10.64
2018-11-12T19:15:11.845Z,10.64
2018-11-12T19:17:40.589Z,10.69
2018-11-12T19:20:10.013Z,10.73
2018-11-12T19:22:38.355Z,10.78
2018-11-12T19:25:08.615Z,10.82
2018-11-12T19:27:36.895Z,10.78
2018-11-12T19:30:08.231Z,10.70
2018-11-12T19:32:36.558Z,10.65
2018-11-12T19:35:05.578Z,10.66
2018-11-12T19:37:34.026Z,10.51
2018-11-12T19:40:02.458Z,10.37
2018-11-12T19:42:30.805Z,10.30
2018-11-12T19:44:59.171Z,10.25
2018-11-12T19:47:27.501Z,10.22
2018-11-12T19:49:55.854Z,10.26
2018-11-12T19:52:24.221Z,10.23
2018-11-12T19:54:52.615Z,10.25
2018-11-12T19:57:20.962Z,10.21
2018-11-12T19:59:49.345Z,10.17
2018-11-12T20:02:17.915Z,10.17
2018-11-12T20:04:46.206Z,10.09
2018-11-12T20:07:14.576Z,9.98
2018-11-12T20:09:43.024Z,9.98
2018-11-12T20:12:11.324Z,10.00
2018-11-12T20:14:39.901Z,10.01
2018-11-12T20:17:08.350Z,10.04
2018-11-12T20:19:36.747Z,10.06
2018-11-12T20:22:05.278Z,10.00
2018-11-12T20:24:33.658Z,9.95
2018-11-12T20:27:02.024Z,9.94
2018-11-12T20:29:30.999Z,9.86
2018-11-12T20:31:59.633Z,9.82
2018-11-12T20:34:28.752Z,9.73
2018-11-12T20:36:57.067Z,9.61
2018-11-12T20:39:25.541Z,9.59
2018-11-12T20:41:53.928Z,9.54
2018-11-12T20:44:22.425Z,9.44
2018-11-12T20:46:51.569Z,9.33
2018-11-12T20:49:20.067Z,9.30
2018-11-12T20:51:48.371Z,9.29
2018-11-12T20:54:17.339Z,9.29
2018-11-12T20:56:45.629Z,9.25
2018-11-12T20:59:13.938Z,9.29
2018-11-12T21:01:42.347Z,9.33
2018-11-12T21:04:10.598Z,9.36
2018-11-12T21:06:39.373Z,9.39
2018-11-12T21:09:11.447Z,9.42
2018-11-12T21:11:39.795Z,9.34
2018-11-12T21:14:08.346Z,9.21
2018-11-12T21:16:37.276Z,9.06
2018-11-12T21:19:06.262Z,8.98
2018-11-12T21:21:35.022Z,8.90
2018-11-12T21:24:03.394Z,8.89
2018-11-12T21:26:31.781Z,8.83
2018-11-12T21:29:00.177Z,8.80
2018-11-12T21:31:28.485Z,8.86
2018-11-12T21:33:56.772Z,8.95
2018-11-12T21:36:25.402Z,8.96
2018-11-12T21:38:54.590Z,8.87
2018-11-12T21:41:22.897Z,8.74
2018-11-12T21:43:51.570Z,8.73
2018-11-12T21:46:19.923Z,8.78
2018-11-12T21:48:48.267Z,8.76
2018-11-12T21:51:16.617Z,8.77
2018-11-12T21:53:45.026Z,8.83
2018-11-12T21:56:14.280Z,8.86
2018-11-12T21:58:42.755Z,8.81
2018-11-12T22:01:11.078Z,8.80
2018-11-12T22:03:39.440Z,8.80
2018-11-12T22:06:07.906Z,8.73
2018-11-12T22:08:36.412Z,8.72
2018-11-12T22:11:04.665Z,8.73
2018-11-12T22:13:33.039Z,8.69
2018-11-12T22:16:01.704Z,8.60
2018-11-12T22:18:30.114Z,8.58
2018-11-12T22:20:58.562Z,8.56
2018-11-12T22:23:26.875Z,8.51
2018-11-12T22:25:55.246Z,8.41
2018-11-12T22:28:23.703Z,8.43
2018-11-12T22:30:52.038Z,8.45
2018-11-12T22:33:20.378Z,8.39
2018-11-12T22:35:48.670Z,8.37
2018-11-12T22:38:17.015Z,8.37
2018-11-12T22:40:45.546Z,8.33
2018-11-12T22:43:13.899Z,8.32
2018-11-12T22:45:42.333Z,8.31
2018-11-12T22:48:10.671Z,8.33
2018-11-12T22:50:39.130Z,8.39
2018-11-12T22:53:07.626Z,8.32
2018-11-12T22:55:36.399Z,8.27
2018-11-12T22:58:04.817Z,8.25
2018-11-12T23:00:38.048Z,8.31
2018-11-12T23:03:08.041Z,8.28
2018-11-12T23:05:36.414Z,8.24
2018-11-12T23:08:04.929Z,8.22
2018-11-12T23:10:33.243Z,8.28
2018-11-12T23:13:01.597Z,8.33
2018-11-12T23:15:29.906Z,8.40
2018-11-12T23:17:58.346Z,8.42
2018-11-12T23:20:28.168Z,8.46
2018-11-12T23:22:56.728Z,8.52
2018-11-12T23:25:25.128Z,8.44
2018-11-12T23:27:54.094Z,8.41
2018-11-12T23:30:23.643Z,8.37
2018-11-12T23:32:52.382Z,8.27
2018-11-12T23:35:22.984Z,8.26
2018-11-12T23:37:51.644Z,8.25
2018-11-12T23:40:19.935Z,8.24
2018-11-12T23:42:49.208Z,8.25
2018-11-12T23:45:18.119Z,8.29
2018-11-12T23:47:46.599Z,8.32
2018-11-12T23:50:16.534Z,8.25
2018-11-12T23:52:45.698Z,8.20
2018-11-12T23:55:14.445Z,8.15
2018-11-12T23:57:43.138Z,8.18
